CAO772 EHAM-ZSPD
Flight info
| Callsign | CAO772 |
|---|---|
| Flight time | N/A |
| Altitude | 29000 |
| Route | EDUPO Z739 MISGO DCT TIVUN DCT ESAMA DCT OSBIT DCT TENLO DCT LAMSI DCT STEIN DCT TEGRI DCT DINRO/N0490F310 DCT UDROS DCT CRM UM11 TBN UG261 NOLGA DCT BARAD M747 SUBUT T916 BALUN/K0913F310 T916 MNK/K0902F330 T916 PIGAL M610 RULAD/K0896S1010 A343 POSOT B215 FKG W188 LIKMI W270 POPIB/K0891S1070 W270 DKO W69 HUR B339 SOTMU/K0902S1040 W98 ELKUR W40 DOXAB/K0898S1070 W40 YQG/K0893S1100 W142 DALIM/K0900S1070 A593 DPX A470 DALNU W166 ZJ W167 SASAN SAS81A |
| Aircraft | B77L/H-SDE1E2E3FGHIJ2J3J4J5M1RWXY/LB1D1 |
Departure
| Time | 2026-05-05 15:15 |
|---|---|
| Airport | Amsterdam Airport Schiphol (EHAM) |
Arrival
| Time | N/A |
|---|---|
| Airport | Shanghai Pudong International Airport (ZSPD) |
| Time | Latitude | Longitude | Altitude | Speed | Heading |
|---|---|---|---|---|---|
| 2026-05-05 14:38 | 52.30198 | 4.75660 | 4 ft | 0 kts | 238° |
| 2026-05-05 14:42 | 52.30199 | 4.75660 | 4 ft | 0 kts | 238° |
| 2026-05-05 14:50 | 52.30199 | 4.75661 | 3 ft | 0 kts | 238° |
| 2026-05-05 15:00 | 52.30199 | 4.75662 | 3 ft | 2 kts | 238° |
| 2026-05-05 15:00 | 52.30214 | 4.75698 | 4 ft | 4 kts | 195° |
| 2026-05-05 15:00 | 52.30224 | 4.75698 | 6 ft | 4 kts | 158° |
| 2026-05-05 15:01 | 52.30240 | 4.75687 | 5 ft | 1 kts | 156° |
| 2026-05-05 15:05 | 52.30234 | 4.75691 | 3 ft | 3 kts | 156° |
| 2026-05-05 15:05 | 52.30202 | 4.75723 | 3 ft | 7 kts | 148° |
| 2026-05-05 15:05 | 52.30160 | 4.75767 | 3 ft | 7 kts | 147° |
| 2026-05-05 15:06 | 52.30118 | 4.75808 | 3 ft | 6 kts | 148° |
| 2026-05-05 15:06 | 52.30083 | 4.75839 | 3 ft | 6 kts | 146° |
| 2026-05-05 15:06 | 52.30048 | 4.75856 | 3 ft | 6 kts | 202° |
| 2026-05-05 15:06 | 52.30019 | 4.75804 | 3 ft | 7 kts | 236° |
| 2026-05-05 15:07 | 52.29994 | 4.75734 | 3 ft | 7 kts | 238° |
| 2026-05-05 15:07 | 52.29967 | 4.75663 | 3 ft | 7 kts | 238° |
| 2026-05-05 15:07 | 52.29940 | 4.75593 | 3 ft | 7 kts | 238° |
| 2026-05-05 15:07 | 52.29913 | 4.75522 | 3 ft | 7 kts | 238° |
| 2026-05-05 15:08 | 52.29886 | 4.75452 | 3 ft | 7 kts | 237° |
| 2026-05-05 15:08 | 52.29857 | 4.75379 | 3 ft | 8 kts | 237° |
| 2026-05-05 15:08 | 52.29827 | 4.75304 | 3 ft | 8 kts | 237° |
| 2026-05-05 15:08 | 52.29829 | 4.75220 | 4 ft | 8 kts | 302° |
| 2026-05-05 15:09 | 52.29866 | 4.75151 | 3 ft | 8 kts | 313° |
| 2026-05-05 15:09 | 52.29903 | 4.75081 | 3 ft | 8 kts | 311° |
| 2026-05-05 15:09 | 52.29941 | 4.75010 | 3 ft | 8 kts | 311° |
| 2026-05-05 15:09 | 52.29980 | 4.74939 | 3 ft | 8 kts | 311° |
| 2026-05-05 15:10 | 52.30017 | 4.74868 | 3 ft | 8 kts | 311° |
| 2026-05-05 15:10 | 52.30056 | 4.74797 | 4 ft | 8 kts | 311° |
| 2026-05-05 15:10 | 52.30095 | 4.74727 | 7 ft | 8 kts | 311° |
| 2026-05-05 15:10 | 52.30133 | 4.74657 | 13 ft | 8 kts | 311° |
| 2026-05-05 15:11 | 52.30172 | 4.74585 | 14 ft | 8 kts | 311° |
| 2026-05-05 15:11 | 52.30211 | 4.74514 | 14 ft | 8 kts | 311° |
| 2026-05-05 15:11 | 52.30250 | 4.74443 | 14 ft | 8 kts | 311° |
| 2026-05-05 15:11 | 52.30289 | 4.74369 | 13 ft | 10 kts | 310° |
| 2026-05-05 15:12 | 52.30345 | 4.74263 | 3 ft | 11 kts | 311° |
| 2026-05-05 15:12 | 52.30373 | 4.74153 | 3 ft | 11 kts | 264° |
| 2026-05-05 15:12 | 52.30332 | 4.74048 | 3 ft | 11 kts | 223° |
| 2026-05-05 15:12 | 52.30269 | 4.73974 | 3 ft | 11 kts | 215° |
| 2026-05-05 15:13 | 52.30208 | 4.73898 | 4 ft | 11 kts | 219° |
| 2026-05-05 15:13 | 52.30191 | 4.73812 | 2 ft | 8 kts | 275° |
| 2026-05-05 15:13 | 52.30224 | 4.73745 | 1 ft | 8 kts | 340° |
| 2026-05-05 15:13 | 52.30287 | 4.73744 | 0 ft | 12 kts | 6° |
| 2026-05-05 15:14 | 52.30447 | 4.73758 | 1 ft | 36 kts | 5° |
| 2026-05-05 15:14 | 52.30938 | 4.73805 | 3 ft | 109 kts | 3° |
| 2026-05-05 15:14 | 52.31949 | 4.73900 | 3 ft | 181 kts | 2° |
| 2026-05-05 15:14 | 52.33294 | 4.73972 | 473 ft | 193 kts | 3° |
| 2026-05-05 15:15 | 52.34617 | 4.74042 | 1366 ft | 188 kts | 10° |
| 2026-05-05 15:15 | 52.35813 | 4.74843 | 1936 ft | 189 kts | 31° |
| 2026-05-05 15:15 | 52.37007 | 4.75933 | 2045 ft | 212 kts | 28° |
| 2026-05-05 15:15 | 52.38279 | 4.77351 | 2099 ft | 233 kts | 47° |
| 2026-05-05 15:16 | 52.39356 | 4.79372 | 2557 ft | 238 kts | 47° |
| 2026-05-05 15:16 | 52.40500 | 4.81377 | 3222 ft | 242 kts | 46° |
| 2026-05-05 15:16 | 52.41649 | 4.83382 | 3917 ft | 239 kts | 52° |
| 2026-05-05 15:16 | 52.42334 | 4.85863 | 4203 ft | 254 kts | 85° |
| 2026-05-05 15:17 | 52.42330 | 4.88758 | 4664 ft | 258 kts | 89° |
| 2026-05-05 15:17 | 52.42352 | 4.91741 | 5126 ft | 266 kts | 88° |
| 2026-05-05 15:17 | 52.42382 | 4.94816 | 5617 ft | 274 kts | 89° |
| 2026-05-05 15:17 | 52.42193 | 4.97946 | 5970 ft | 282 kts | 111° |
| 2026-05-05 15:18 | 52.41061 | 5.00556 | 6416 ft | 285 kts | 143° |
| 2026-05-05 15:18 | 52.39438 | 5.02391 | 6918 ft | 287 kts | 146° |
| 2026-05-05 15:18 | 52.37783 | 5.04265 | 7493 ft | 290 kts | 145° |
| 2026-05-05 15:18 | 52.36132 | 5.06163 | 8143 ft | 291 kts | 145° |
| 2026-05-05 15:19 | 52.34486 | 5.08057 | 8716 ft | 294 kts | 145° |
| 2026-05-05 15:19 | 52.32861 | 5.10094 | 9265 ft | 296 kts | 136° |
| 2026-05-05 15:19 | 52.31446 | 5.12574 | 9797 ft | 300 kts | 130° |
| 2026-05-05 15:19 | 52.30086 | 5.15202 | 10253 ft | 308 kts | 130° |
| 2026-05-05 15:20 | 52.28646 | 5.17944 | 10379 ft | 327 kts | 131° |
| 2026-05-05 15:20 | 52.27100 | 5.20807 | 10542 ft | 345 kts | 132° |
| 2026-05-05 15:20 | 52.25454 | 5.23806 | 10708 ft | 363 kts | 132° |
| 2026-05-05 15:20 | 52.23762 | 5.26945 | 11113 ft | 373 kts | 129° |
| 2026-05-05 15:21 | 52.22192 | 5.30370 | 11638 ft | 380 kts | 125° |
| 2026-05-05 15:21 | 52.20708 | 5.33884 | 12250 ft | 384 kts | 124° |
| 2026-05-05 15:21 | 52.19223 | 5.37444 | 12909 ft | 386 kts | 124° |
| 2026-05-05 15:21 | 52.18426 | 5.39338 | 13238 ft | 388 kts | 124° |